sensor_id;sensor_type;location;lat;lon;timestamp;pressure;altitude;pressure_sealevel;temperature
57468;BMP280;43311;51.196;7.518;2024-03-23T06:48:10;96142.72;;;3.52
57468;BMP280;43311;51.196;7.518;2024-03-23T06:50:55;96205.63;;;3.84
57468;BMP280;43311;51.196;7.518;2024-03-23T07:00:17;96207.88;;;3.79
57468;BMP280;43311;51.196;7.518;2024-03-23T07:02:43;96216.41;;;3.72
57468;BMP280;43311;51.196;7.518;2024-03-23T07:26:51;96217.50;;;4.06
57468;BMP280;43311;51.196;7.518;2024-03-23T08:00:25;96210.50;;;6.10
57468;BMP280;43311;51.196;7.518;2024-03-23T08:08:00;96215.81;;;7.59
57468;BMP280;43311;51.196;7.518;2024-03-23T08:21:06;96237.59;;;7.20
57468;BMP280;43311;51.196;7.518;2024-03-23T08:23:37;96227.69;;;7.38
57468;BMP280;43311;51.196;7.518;2024-03-23T08:58:17;96230.66;;;7.40
57468;BMP280;43311;51.196;7.518;2024-03-23T09:00:51;96222.88;;;7.62
57468;BMP280;43311;51.196;7.518;2024-03-23T09:07:03;96226.88;;;7.41
57468;BMP280;43311;51.196;7.518;2024-03-23T09:14:39;96216.63;;;8.02
57468;BMP280;43311;51.196;7.518;2024-03-23T09:17:04;96213.44;;;8.37
57468;BMP280;43311;51.196;7.518;2024-03-23T09:19:30;96222.41;;;8.36
57468;BMP280;43311;51.196;7.518;2024-03-23T09:21:55;96209.09;;;8.30
57468;BMP280;43311;51.196;7.518;2024-03-23T09:24:21;96205.66;;;8.11
57468;BMP280;43311;51.196;7.518;2024-03-23T09:33:11;96202.94;;;7.23
57468;BMP280;43311;51.196;7.518;2024-03-23T09:35:40;96206.28;;;7.23
57468;BMP280;43311;51.196;7.518;2024-03-23T09:38:06;96215.97;;;7.23
57468;BMP280;43311;51.196;7.518;2024-03-23T09:40:35;96221.28;;;7.16
57468;BMP280;43311;51.196;7.518;2024-03-23T09:43:00;96229.25;;;7.32
57468;BMP280;43311;51.196;7.518;2024-03-23T09:45:29;96245.59;;;6.76
57468;BMP280;43311;51.196;7.518;2024-03-23T09:48:08;96222.19;;;5.38
57468;BMP280;43311;51.196;7.518;2024-03-23T09:51:17;96246.25;;;4.71
57468;BMP280;43311;51.196;7.518;2024-03-23T11:45:38;96267.13;;;4.22
57468;BMP280;43311;51.196;7.518;2024-03-23T11:49:28;96269.38;;;4.03
57468;BMP280;43311;51.196;7.518;2024-03-23T11:51:55;96259.31;;;4.43
57468;BMP280;43311;51.196;7.518;2024-03-23T11:54:20;96254.44;;;4.66
57468;BMP280;43311;51.196;7.518;2024-03-23T11:59:31;96243.16;;;5.03
57468;BMP280;43311;51.196;7.518;2024-03-23T12:01:58;96220.94;;;5.02
57468;BMP280;43311;51.196;7.518;2024-03-23T12:04:27;96222.97;;;5.35
57468;BMP280;43311;51.196;7.518;2024-03-23T12:07:13;96218.03;;;6.02
57468;BMP280;43311;51.196;7.518;2024-03-23T14:19:43;96203.50;;;5.57
57468;BMP280;43311;51.196;7.518;2024-03-23T14:22:08;96202.28;;;5.72
57468;BMP280;43311;51.196;7.518;2024-03-23T14:24:33;96200.97;;;5.97
57468;BMP280;43311;51.196;7.518;2024-03-23T14:26:58;96189.69;;;6.10
57468;BMP280;43311;51.196;7.518;2024-03-23T14:29:28;96195.00;;;6.04
57468;BMP280;43311;51.196;7.518;2024-03-23T14:31:58;96194.59;;;6.05
57468;BMP280;43311;51.196;7.518;2024-03-23T14:34:34;96189.81;;;6.00
57468;BMP280;43311;51.196;7.518;2024-03-23T14:37:00;96193.56;;;5.96
57468;BMP280;43311;51.196;7.518;2024-03-23T14:39:25;96192.53;;;5.86
57468;BMP280;43311;51.196;7.518;2024-03-23T14:41:51;96195.16;;;5.83
57468;BMP280;43311;51.196;7.518;2024-03-23T14:44:18;96190.78;;;5.69
57468;BMP280;43311;51.196;7.518;2024-03-23T14:46:43;96185.53;;;5.73
57468;BMP280;43311;51.196;7.518;2024-03-23T14:49:14;96182.28;;;5.62
57468;BMP280;43311;51.196;7.518;2024-03-23T14:51:41;96185.16;;;5.78
57468;BMP280;43311;51.196;7.518;2024-03-23T14:54:07;96185.47;;;5.87
57468;BMP280;43311;51.196;7.518;2024-03-23T14:56:33;96180.03;;;6.11
57468;BMP280;43311;51.196;7.518;2024-03-23T14:59:00;96162.06;;;6.23
57468;BMP280;43311;51.196;7.518;2024-03-23T15:01:25;96167.97;;;6.27
57468;BMP280;43311;51.196;7.518;2024-03-23T15:03:51;96169.88;;;6.23
57468;BMP280;43311;51.196;7.518;2024-03-23T15:06:18;96155.50;;;6.12
57468;BMP280;43311;51.196;7.518;2024-03-23T15:08:44;96156.16;;;6.19
57468;BMP280;43311;51.196;7.518;2024-03-23T15:11:10;96159.22;;;6.11
57468;BMP280;43311;51.196;7.518;2024-03-23T15:13:36;96158.97;;;5.99
57468;BMP280;43311;51.196;7.518;2024-03-23T15:16:02;96169.00;;;6.00
57468;BMP280;43311;51.196;7.518;2024-03-23T15:18:30;96179.91;;;5.85
57468;BMP280;43311;51.196;7.518;2024-03-23T15:20:58;96172.09;;;5.85
57468;BMP280;43311;51.196;7.518;2024-03-23T15:23:27;96168.41;;;5.82
57468;BMP280;43311;51.196;7.518;2024-03-23T15:25:54;96176.53;;;5.88
57468;BMP280;43311;51.196;7.518;2024-03-23T15:28:19;96179.25;;;5.70
57468;BMP280;43311;51.196;7.518;2024-03-23T15:30:45;96200.88;;;5.60
57468;BMP280;43311;51.196;7.518;2024-03-23T15:33:11;96177.66;;;5.36
57468;BMP280;43311;51.196;7.518;2024-03-23T15:35:37;96169.56;;;5.20
57468;BMP280;43311;51.196;7.518;2024-03-23T15:38:02;96162.53;;;5.21
57468;BMP280;43311;51.196;7.518;2024-03-23T15:40:28;96164.38;;;5.20
57468;BMP280;43311;51.196;7.518;2024-03-23T15:42:54;96167.81;;;5.07
57468;BMP280;43311;51.196;7.518;2024-03-23T15:45:20;96159.22;;;5.17
57468;BMP280;43311;51.196;7.518;2024-03-23T15:47:45;96160.25;;;5.26
57468;BMP280;43311;51.196;7.518;2024-03-23T15:50:10;96151.72;;;5.26
57468;BMP280;43311;51.196;7.518;2024-03-23T15:52:36;96142.09;;;5.23
57468;BMP280;43311;51.196;7.518;2024-03-23T15:55:02;96146.91;;;5.28
57468;BMP280;43311;51.196;7.518;2024-03-23T15:57:30;96142.03;;;5.30
57468;BMP280;43311;51.196;7.518;2024-03-23T15:59:56;96133.84;;;5.31
57468;BMP280;43311;51.196;7.518;2024-03-23T16:02:21;96141.19;;;5.43
57468;BMP280;43311;51.196;7.518;2024-03-23T16:04:47;96132.84;;;5.69
57468;BMP280;43311;51.196;7.518;2024-03-23T16:07:12;96126.69;;;5.93
57468;BMP280;43311;51.196;7.518;2024-03-23T16:09:38;96129.25;;;5.96
57468;BMP280;43311;51.196;7.518;2024-03-23T16:12:04;96122.66;;;5.88
57468;BMP280;43311;51.196;7.518;2024-03-23T16:14:29;96123.69;;;5.98
57468;BMP280;43311;51.196;7.518;2024-03-23T16:16:55;96124.16;;;5.86
57468;BMP280;43311;51.196;7.518;2024-03-23T16:19:20;96119.03;;;5.79
57468;BMP280;43311;51.196;7.518;2024-03-23T16:21:47;96124.16;;;5.86
57468;BMP280;43311;51.196;7.518;2024-03-23T16:24:12;96119.69;;;5.86
57468;BMP280;43311;51.196;7.518;2024-03-23T16:26:38;96114.50;;;5.83
57468;BMP280;43311;51.196;7.518;2024-03-23T16:29:03;96119.53;;;5.60
57468;BMP280;43311;51.196;7.518;2024-03-23T16:31:29;96112.59;;;5.43
57468;BMP280;43311;51.196;7.518;2024-03-23T16:33:54;96116.69;;;5.44
57468;BMP280;43311;51.196;7.518;2024-03-23T16:36:19;96111.22;;;5.32
57468;BMP280;43311;51.196;7.518;2024-03-23T16:38:45;96114.63;;;5.25
57468;BMP280;43311;51.196;7.518;2024-03-23T16:41:11;96114.69;;;5.15
57468;BMP280;43311;51.196;7.518;2024-03-23T16:43:42;96106.56;;;5.09
57468;BMP280;43311;51.196;7.518;2024-03-23T16:46:09;96105.91;;;4.91
57468;BMP280;43311;51.196;7.518;2024-03-23T16:48:36;96099.63;;;4.89
57468;BMP280;43311;51.196;7.518;2024-03-23T16:51:02;96092.66;;;4.79
57468;BMP280;43311;51.196;7.518;2024-03-23T16:53:31;96099.75;;;4.72
57468;BMP280;43311;51.196;7.518;2024-03-23T16:58:25;96098.28;;;4.67
57468;BMP280;43311;51.196;7.518;2024-03-23T17:00:50;96098.66;;;4.66
57468;BMP280;43311;51.196;7.518;2024-03-23T17:03:17;96110.16;;;4.65
57468;BMP280;43311;51.196;7.518;2024-03-23T17:05:43;96109.75;;;4.70
57468;BMP280;43311;51.196;7.518;2024-03-23T17:08:08;96107.56;;;4.68
57468;BMP280;43311;51.196;7.518;2024-03-23T17:10:34;96105.31;;;4.73
57468;BMP280;43311;51.196;7.518;2024-03-23T17:13:01;96103.81;;;4.72
57468;BMP280;43311;51.196;7.518;2024-03-23T17:15:28;96113.44;;;4.79
57468;BMP280;43311;51.196;7.518;2024-03-23T17:17:55;96105.31;;;4.73
57468;BMP280;43311;51.196;7.518;2024-03-23T17:20:23;96101.53;;;4.81
57468;BMP280;43311;51.196;7.518;2024-03-23T17:22:54;96101.97;;;4.73
57468;BMP280;43311;51.196;7.518;2024-03-23T17:25:23;96103.06;;;4.72
57468;BMP280;43311;51.196;7.518;2024-03-23T17:27:53;96097.56;;;4.63
57468;BMP280;43311;51.196;7.518;2024-03-23T17:30:28;96099.44;;;4.59
57468;BMP280;43311;51.196;7.518;2024-03-23T17:32:54;96096.88;;;4.56
57468;BMP280;43311;51.196;7.518;2024-03-23T17:35:19;96095.00;;;4.56
57468;BMP280;43311;51.196;7.518;2024-03-23T17:37:44;96096.53;;;4.47
57468;BMP280;43311;51.196;7.518;2024-03-23T17:40:11;96102.50;;;4.37
57468;BMP280;43311;51.196;7.518;2024-03-23T17:42:40;96095.84;;;4.32
57468;BMP280;43311;51.196;7.518;2024-03-23T17:45:06;96096.63;;;4.19
57468;BMP280;43311;51.196;7.518;2024-03-23T17:47:35;96094.09;;;4.05
57468;BMP280;43311;51.196;7.518;2024-03-23T17:50:01;96088.56;;;3.93
57468;BMP280;43311;51.196;7.518;2024-03-23T17:52:27;96093.81;;;3.82
57468;BMP280;43311;51.196;7.518;2024-03-23T17:54:52;96084.16;;;3.79
57468;BMP280;43311;51.196;7.518;2024-03-23T17:57:17;96098.28;;;3.71
57468;BMP280;43311;51.196;7.518;2024-03-23T17:59:42;96094.56;;;3.65
57468;BMP280;43311;51.196;7.518;2024-03-23T18:02:08;96100.50;;;3.62
57468;BMP280;43311;51.196;7.518;2024-03-23T18:04:33;96109.41;;;3.61
57468;BMP280;43311;51.196;7.518;2024-03-23T18:06:58;96093.47;;;3.59
57468;BMP280;43311;51.196;7.518;2024-03-23T18:09:24;96094.56;;;3.55
57468;BMP280;43311;51.196;7.518;2024-03-23T18:11:49;96094.97;;;3.46
57468;BMP280;43311;51.196;7.518;2024-03-23T18:14:14;96101.25;;;3.45
57468;BMP280;43311;51.196;7.518;2024-03-23T18:16:40;96102.72;;;3.39
57468;BMP280;43311;51.196;7.518;2024-03-23T18:19:05;96111.63;;;3.38
57468;BMP280;43311;51.196;7.518;2024-03-23T18:21:30;96109.03;;;3.32
57468;BMP280;43311;51.196;7.518;2024-03-23T18:23:55;96114.22;;;3.32
57468;BMP280;43311;51.196;7.518;2024-03-23T18:26:21;96119.78;;;3.30
57468;BMP280;43311;51.196;7.518;2024-03-23T18:28:50;96124.59;;;3.35
57468;BMP280;43311;51.196;7.518;2024-03-23T18:31:19;96131.59;;;3.28
57468;BMP280;43311;51.196;7.518;2024-03-23T18:33:45;96122.34;;;3.23
57468;BMP280;43311;51.196;7.518;2024-03-23T18:36:10;96135.69;;;3.22
57468;BMP280;43311;51.196;7.518;2024-03-23T18:38:36;96133.81;;;3.12
57468;BMP280;43311;51.196;7.518;2024-03-23T18:41:01;96138.25;;;3.08
57468;BMP280;43311;51.196;7.518;2024-03-23T18:43:26;96137.13;;;2.98
57468;BMP280;43311;51.196;7.518;2024-03-23T18:45:52;96133.78;;;2.91
57468;BMP280;43311;51.196;7.518;2024-03-23T18:48:18;96138.94;;;2.84
57468;BMP280;43311;51.196;7.518;2024-03-23T18:50:43;96135.22;;;2.78
57468;BMP280;43311;51.196;7.518;2024-03-23T18:53:09;96129.28;;;2.67
57468;BMP280;43311;51.196;7.518;2024-03-23T18:55:37;96131.50;;;2.68
57468;BMP280;43311;51.196;7.518;2024-03-23T18:58:03;96136.28;;;2.56
57468;BMP280;43311;51.196;7.518;2024-03-23T19:00:29;96136.63;;;2.51
57468;BMP280;43311;51.196;7.518;2024-03-23T19:02:54;96138.50;;;2.54
57468;BMP280;43311;51.196;7.518;2024-03-23T19:05:21;96135.19;;;2.61
57468;BMP280;43311;51.196;7.518;2024-03-23T19:07:46;96136.66;;;2.58
57468;BMP280;43311;51.196;7.518;2024-03-23T19:10:12;96124.06;;;2.60
57468;BMP280;43311;51.196;7.518;2024-03-23T19:12:37;96132.56;;;2.50
57468;BMP280;43311;51.196;7.518;2024-03-23T19:15:03;96126.22;;;2.37
57468;BMP280;43311;51.196;7.518;2024-03-23T19:17:30;96125.09;;;2.35
57468;BMP280;43311;51.196;7.518;2024-03-23T19:19:55;96123.28;;;2.35
57468;BMP280;43311;51.196;7.518;2024-03-23T19:22:20;96116.63;;;2.34
57468;BMP280;43311;51.196;7.518;2024-03-23T19:24:48;96111.84;;;2.43
57468;BMP280;43311;51.196;7.518;2024-03-23T19:27:13;96109.94;;;2.33
57468;BMP280;43311;51.196;7.518;2024-03-23T19:29:39;96109.97;;;2.37
57468;BMP280;43311;51.196;7.518;2024-03-23T19:32:04;96100.00;;;2.39
57468;BMP280;43311;51.196;7.518;2024-03-23T19:34:29;96109.25;;;2.36
57468;BMP280;43311;51.196;7.518;2024-03-23T19:36:55;96116.63;;;2.34
57468;BMP280;43311;51.196;7.518;2024-03-23T19:39:20;96110.69;;;2.30
57468;BMP280;43311;51.196;7.518;2024-03-23T19:41:46;96117.69;;;2.30
57468;BMP280;43311;51.196;7.518;2024-03-23T19:44:11;96116.53;;;2.20
57468;BMP280;43311;51.196;7.518;2024-03-23T19:46:36;96121.03;;;2.30
57468;BMP280;43311;51.196;7.518;2024-03-23T19:49:02;96119.19;;;2.31
57468;BMP280;43311;51.196;7.518;2024-03-23T19:51:28;96103.31;;;2.36
57468;BMP280;43311;51.196;7.518;2024-03-23T19:53:53;96114.03;;;2.38
57468;BMP280;43311;51.196;7.518;2024-03-23T19:56:19;96117.34;;;2.31
57468;BMP280;43311;51.196;7.518;2024-03-23T19:58:44;96106.25;;;2.31
57468;BMP280;43311;51.196;7.518;2024-03-23T20:01:15;96105.53;;;2.37
57468;BMP280;43311;51.196;7.518;2024-03-23T20:03:49;96103.72;;;2.41
57468;BMP280;43311;51.196;7.518;2024-03-23T20:06:15;96085.19;;;2.32
57468;BMP280;43311;51.196;7.518;2024-03-23T20:08:41;96096.34;;;2.50
57468;BMP280;43311;51.196;7.518;2024-03-23T20:11:06;96095.97;;;2.55
57468;BMP280;43311;51.196;7.518;2024-03-23T20:13:32;96091.56;;;2.59
57468;BMP280;43311;51.196;7.518;2024-03-23T20:15:57;96083.09;;;2.69
57468;BMP280;43311;51.196;7.518;2024-03-23T20:18:23;96088.63;;;2.74
57468;BMP280;43311;51.196;7.518;2024-03-23T20:20:52;96103.41;;;2.70
57468;BMP280;43311;51.196;7.518;2024-03-23T20:23:18;96097.50;;;2.70
57468;BMP280;43311;51.196;7.518;2024-03-23T20:25:53;96093.81;;;2.71
57468;BMP280;43311;51.196;7.518;2024-03-23T20:28:19;96087.16;;;2.70
57468;BMP280;43311;51.196;7.518;2024-03-23T20:30:47;96083.09;;;2.72
57468;BMP280;43311;51.196;7.518;2024-03-23T20:33:14;96082.69;;;2.60
57468;BMP280;43311;51.196;7.518;2024-03-23T20:35:46;96088.63;;;2.61
57468;BMP280;43311;51.196;7.518;2024-03-23T20:38:14;96084.19;;;2.65
57468;BMP280;43311;51.196;7.518;2024-03-23T20:40:40;96071.59;;;2.60
57468;BMP280;43311;51.196;7.518;2024-03-23T20:43:08;96072.31;;;2.50
57468;BMP280;43311;51.196;7.518;2024-03-23T20:45:34;96067.84;;;2.43
57468;BMP280;43311;51.196;7.518;2024-03-23T20:48:00;96074.50;;;2.44
57468;BMP280;43311;51.196;7.518;2024-03-23T20:50:25;96056.78;;;2.46
57468;BMP280;43311;51.196;7.518;2024-03-23T20:52:51;96053.09;;;2.47
57468;BMP280;43311;51.196;7.518;2024-03-23T20:55:16;96055.31;;;2.49
57468;BMP280;43311;51.196;7.518;2024-03-23T20:57:41;96058.28;;;2.47
57468;BMP280;43311;51.196;7.518;2024-03-23T21:00:07;96056.78;;;2.46
57468;BMP280;43311;51.196;7.518;2024-03-23T21:02:33;96060.88;;;2.47
57468;BMP280;43311;51.196;7.518;2024-03-23T21:04:59;96061.22;;;2.49
57468;BMP280;43311;51.196;7.518;2024-03-23T21:07:26;96060.53;;;2.59
57468;BMP280;43311;51.196;7.518;2024-03-23T21:09:51;96061.63;;;2.58
57468;BMP280;43311;51.196;7.518;2024-03-23T21:12:16;96059.41;;;2.64
57468;BMP280;43311;51.196;7.518;2024-03-23T21:14:42;96056.09;;;2.63
57468;BMP280;43311;51.196;7.518;2024-03-23T21:17:07;96059.03;;;2.58
57468;BMP280;43311;51.196;7.518;2024-03-23T21:19:33;96052.41;;;2.64
57468;BMP280;43311;51.196;7.518;2024-03-23T21:21:58;96056.81;;;2.67
57468;BMP280;43311;51.196;7.518;2024-03-23T21:24:24;96066.09;;;2.71
57468;BMP280;43311;51.196;7.518;2024-03-23T21:26:50;96056.09;;;2.84
57468;BMP280;43311;51.196;7.518;2024-03-23T21:29:16;96042.78;;;2.75
57468;BMP280;43311;51.196;7.518;2024-03-23T21:31:41;96041.69;;;2.76
57468;BMP280;43311;51.196;7.518;2024-03-23T21:34:07;96042.81;;;2.78
